Pagina principale
METAR-TAF:

METAR-TAF

Aeroporti :

Gibuti, Gibuti

latitudine: 11-33N, longitudine: 043-10E, altezza: 49 m

Osservazione

Il bollettino è stato emesso 1 ora e 49 minuti fa, alle 13:00 UTC
Vento 10 kt da est
Temperature 33°C
Umidità 63%
Pressione 1007 hPa
Visibilità 10 km o più

METAR: HDAM 211300Z 08010KT 9999 FEW023FEW030CB 33/25 Q1007

Ora: 17:49 (14:49 UTC)

Previsione

Il bollettino è stato emesso 4 ore e 49 minuti fa, alle 10:00 UTC
Previsione valida dal 21 alle 12 UTC al 22 alle 12 UTC
Vento 10 kt da est
Visibilità 10 km o più
Nubi sparse ad un'altezza di 2300 ft
Evoluzione graduale
dal 21 alle 15 UTC al 21 alle 18 UTC
Vento 5 kt da direzioni variabili
Poco nuvoloso ad un'altezza di 2000 ft
Evoluzione graduale
dal 22 alle 00 UTC al 22 alle 03 UTC
Vento kt da nord
Nubi sparse ad un'altezza di 2000 ft

TAF: HDAM 211000Z 2112/2212 08010KT 9999 SCT023 BECMG 2115/2118 VRB05KT FEW020 BECMG 2200/2203 00000KT SCT020

Osservazioni e previsioni meteorologiche di più di 4000 aeroporti (messaggi METAR e TAF).

Le stazioni disponibili sono rappresentate dai dischi gialli e rossi sulla carta.

Puntare il mouse per vedere il nome della stazione.

Clicca sopra per visualizzare le osservazioni e previsioni meteorologiche.

Per cambiare la mappa : fare clic sui pulsanti verdi con una croce nera per ingrandire, il pulsante verde con un trattino per diminuire, o sulla freccia verde per le mappe adiacenti.


METAR-TAF: